Danielle C — WDC7686 — position and weather

sailwx.info

Track history (hours):
 
Tides and Currents Weather Stations Pressure Air Temp Water Temp Dewpoint Dewpoint Depression Visibility Wind Speed Wind Dir Waves Ship Positions

Danielle C

Owner: D&S Marine Service,LLC., Houma, LA. More information available from US FCC via Universal Licensing System and Coast Guard Vessel Documentation Center.

Last reported at 2017-Oct-19 01:25 UTC. Time now 2017-Oct-19 01:44 UTC.
Position N 29°44' W 095°12'.

Length 113 m; draft 2.5 m.

Type: . MMSI: 367075180.

Date/timePositionNaut miles runAvg speedWind from/ knotsBaromVisibWave heightAir tempDewpointWater temp
2017-Oct-19 01:25N 29°44' W 095°12'0 0.0
2017-Oct-19 00:48N 29°44' W 095°12'0 0.1
2017-Oct-19 00:26N 29°44' W 095°12'0 0.0
2017-Oct-18 20:35N 29°44' W 095°12'0 0.2
2017-Oct-18 20:29N 29°44' W 095°12'0 0.5
2017-Oct-18 20:00N 29°44' W 095°12'6 0.8
2017-Oct-18 12:48N 29°46' W 095°06'0 0.0
2017-Oct-18 12:30N 29°46' W 095°06'0 0.0
2017-Oct-18 11:47N 29°46' W 095°06'0 0.0
2017-Oct-18 11:29N 29°46' W 095°06'0 0.0
2017-Oct-18 10:50N 29°46' W 095°06'0 0.0
2017-Oct-18 10:30N 29°46' W 095°06'0 0.0
2017-Oct-18 06:28N 29°46' W 095°06'0 0.0
2017-Oct-18 05:34N 29°46' W 095°06'0 0.1
2017-Oct-18 05:30N 29°46' W 095°06'0 0.0
2017-Oct-18 05:00N 29°46' W 095°06'0 0.0
2017-Oct-18 04:30N 29°46' W 095°06'0 0.0
2017-Oct-18 04:00N 29°46' W 095°06'0 0.0
2017-Oct-18 03:25N 29°46' W 095°06'0 0.0
2017-Oct-17 11:24N 29°46' W 095°06'0 0.0
2017-Oct-17 10:49N 29°46' W 095°06'0 0.0
2017-Oct-17 10:28N 29°46' W 095°06'0 0.0
2017-Oct-17 09:59N 29°46' W 095°06'0 0.0
2017-Oct-17 09:30N 29°46' W 095°06'0 0.0
2017-Oct-17 08:49N 29°46' W 095°06'0 0.0
2017-Oct-17 08:27N 29°46' W 095°06'0 0.0
2017-Oct-17 07:58N 29°46' W 095°06'0 0.0
2017-Oct-17 07:07N 29°46' W 095°06'0 0.0
2017-Oct-17 06:51N 29°46' W 095°06'0 0.0
2017-Oct-17 06:28N 29°46' W 095°06'0 0.0
2017-Oct-17 05:49N 29°46' W 095°06'0 0.0
2017-Oct-17 05:17N 29°46' W 095°06'0 0.0
2017-Oct-17 04:56N 29°46' W 095°06'0 0.0
2017-Oct-17 04:24N 29°46' W 095°06'0 0.0
2017-Oct-17 03:56N 29°46' W 095°06'0 0.0
2017-Oct-17 03:14N 29°46' W 095°06'0 0.0
2017-Oct-17 02:59N 29°46' W 095°06'0 0.0
2017-Oct-17 02:28N 29°46' W 095°06'0 0.0
2017-Oct-17 02:00N 29°46' W 095°06'2 0.1
2017-Oct-15 09:07N 29°44' W 095°04'3 5.1
2017-Oct-15 08:37N 29°43' W 095°01'1 4.6
2017-Oct-15 08:30N 29°42' W 095°01'3 6.1
2017-Oct-15 08:00N 29°40' W 094°59'4 6.1
2017-Oct-15 07:21N 29°36' W 094°57'  
Track history (hours):
 
Tides and Currents Weather Stations Pressure Air Temp Water Temp Dewpoint Dewpoint Depression Visibility Wind Speed Wind Dir Waves Ship Positions

Danielle C

Owner: D&S Marine Service,LLC., Houma, LA. More information available from US FCC via Universal Licensing System and Coast Guard Vessel Documentation Center.

Last reported at 2017-Oct-19 01:25 UTC. Time now 2017-Oct-19 01:44 UTC.
Position N 29°44' W 095°12'.

Length 113 m; draft 2.5 m.

Type: . MMSI: 367075180.

Date/timePositionNaut miles runAvg speedWind from/ knotsBaromVisibWave heightAir tempDewpointWater temp
2017-Oct-19 01:25N 29°44' W 095°12'0 0.0
2017-Oct-19 00:48N 29°44' W 095°12'0 0.1
2017-Oct-19 00:26N 29°44' W 095°12'0 0.0
2017-Oct-18 20:35N 29°44' W 095°12'0 0.2
2017-Oct-18 20:29N 29°44' W 095°12'0 0.5
2017-Oct-18 20:00N 29°44' W 095°12'6 0.8
2017-Oct-18 12:48N 29°46' W 095°06'0 0.0
2017-Oct-18 12:30N 29°46' W 095°06'0 0.0
2017-Oct-18 11:47N 29°46' W 095°06'0 0.0
2017-Oct-18 11:29N 29°46' W 095°06'0 0.0
2017-Oct-18 10:50N 29°46' W 095°06'0 0.0
2017-Oct-18 10:30N 29°46' W 095°06'0 0.0
2017-Oct-18 06:28N 29°46' W 095°06'0 0.0
2017-Oct-18 05:34N 29°46' W 095°06'0 0.1
2017-Oct-18 05:30N 29°46' W 095°06'0 0.0
2017-Oct-18 05:00N 29°46' W 095°06'0 0.0
2017-Oct-18 04:30N 29°46' W 095°06'0 0.0
2017-Oct-18 04:00N 29°46' W 095°06'0 0.0
2017-Oct-18 03:25N 29°46' W 095°06'0 0.0
2017-Oct-17 11:24N 29°46' W 095°06'0 0.0
2017-Oct-17 10:49N 29°46' W 095°06'0 0.0
2017-Oct-17 10:28N 29°46' W 095°06'0 0.0
2017-Oct-17 09:59N 29°46' W 095°06'0 0.0
2017-Oct-17 09:30N 29°46' W 095°06'0 0.0
2017-Oct-17 08:49N 29°46' W 095°06'0 0.0
2017-Oct-17 08:27N 29°46' W 095°06'0 0.0
2017-Oct-17 07:58N 29°46' W 095°06'0 0.0
2017-Oct-17 07:07N 29°46' W 095°06'0 0.0
2017-Oct-17 06:51N 29°46' W 095°06'0 0.0
2017-Oct-17 06:28N 29°46' W 095°06'0 0.0
2017-Oct-17 05:49N 29°46' W 095°06'0 0.0
2017-Oct-17 05:17N 29°46' W 095°06'0 0.0
2017-Oct-17 04:56N 29°46' W 095°06'0 0.0
2017-Oct-17 04:24N 29°46' W 095°06'0 0.0
2017-Oct-17 03:56N 29°46' W 095°06'0 0.0
2017-Oct-17 03:14N 29°46' W 095°06'0 0.0
2017-Oct-17 02:59N 29°46' W 095°06'0 0.0
2017-Oct-17 02:28N 29°46' W 095°06'0 0.0
2017-Oct-17 02:00N 29°46' W 095°06'2 0.1
2017-Oct-15 09:07N 29°44' W 095°04'3 5.1
2017-Oct-15 08:37N 29°43' W 095°01'1 4.6
2017-Oct-15 08:30N 29°42' W 095°01'3 6.1
2017-Oct-15 08:00N 29°40' W 094°59'4 6.1
2017-Oct-15 07:21N 29°36' W 094°57'  

Dump ship's entire track history